Time;durP1;ratioP1;P1;durP2;ratioP2;P2;SDS_P1;SDS_P2;PMS_P1;PMS_P2;Temp;Humidity;BMP_temperature;BMP_pressure;BME280_temperature;BME280_humidity;BME280_pressure;Samples;Min_cycle;Max_cycle;Signal;HPM_P1;HPM_P2
2022/05/12 04:51:38;;;;;;;;;;;;;;;19.53;52.73;97291.75;4244416;27;10321;-73
2022/05/12 04:53:41;;;;;;;;;;;;;;;19.77;52.62;97297.88;4242104;27;5824;-73
2022/05/12 04:55:45;;;;;;;;;;;;;;;19.94;52.37;97295.25;4232093;28;6333;-72
2022/05/12 04:57:50;;;;;;;;;;;;;;;20.10;52.18;97301.72;4232108;28;5785;-73
2022/05/12 04:59:55;;;;;;;;;;;;;;;20.21;52.21;97296.28;4231949;28;5738;-73
2022/05/12 05:01:58;;;;;;;;;;;;;;;20.32;52.21;97292.72;4213886;28;5655;-73
2022/05/12 05:04:03;;;;;;;;;;;;;;;20.42;52.10;97302.00;4217554;28;5770;-73
2022/05/12 05:06:06;;;;;;;;;;;;;;;20.52;51.78;97307.56;4249129;27;5625;-72
2022/05/12 05:08:14;;;;;;;;;;;;;;;20.60;51.60;97309.84;4237803;27;5069;-73
2022/05/12 05:10:17;;;;;;;;;;;;;;;20.64;51.23;97303.75;4231430;27;5817;-72
2022/05/12 05:12:20;;;;;;;;;;;;;;;20.70;51.40;97304.63;4237266;27;5645;-73
2022/05/12 05:14:23;;;;;;;;;;;;;;;20.75;51.27;97307.41;4230945;28;5637;-72
2022/05/12 05:16:26;;;;;;;;;;;;;;;20.84;51.26;97305.13;4231918;28;5615;-72
2022/05/12 05:18:29;;;;;;;;;;;;;;;20.89;50.86;97306.00;4231729;28;5612;-72
2022/05/12 05:20:33;;;;;;;;;;;;;;;20.93;50.86;97312.50;4229924;28;5758;-72
2022/05/12 05:22:37;;;;;;;;;;;;;;;20.98;50.79;97310.97;4224901;28;5744;-72
2022/05/12 05:24:41;;;;;;;;;;;;;;;21.01;50.61;97311.28;4225841;28;5621;-72
2022/05/12 05:26:44;;;;;;;;;;;;;;;21.04;50.62;97316.16;4225385;28;6269;-72
2022/05/12 05:28:47;;;;;;;;;;;;;;;21.07;50.49;97317.56;4230734;28;5719;-72
2022/05/12 05:30:51;;;;;;;;;;;;;;;21.09;50.28;97318.94;4213232;28;5713;-72
2022/05/12 05:32:54;;;;;;;;;;;;;;;21.12;50.30;97320.31;4230768;28;5624;-72
2022/05/12 05:34:57;;;;;;;;;;;;;;;21.16;50.29;97324.91;4230017;28;5612;-72
2022/05/12 05:37:00;;;;;;;;;;;;;;;21.20;49.85;97325.25;4216315;28;5643;-72
2022/05/12 05:39:04;;;;;;;;;;;;;;;21.24;50.07;97323.69;4214579;28;5645;-72
2022/05/12 05:41:09;;;;;;;;;;;;;;;21.31;49.80;97326.25;4229423;28;5625;-72
2022/05/12 05:43:12;;;;;;;;;;;;;;;21.41;49.79;97324.50;4229792;28;5826;-72
2022/05/12 05:45:17;;;;;;;;;;;;;;;21.55;49.13;97324.13;4229618;28;5648;-73
2022/05/12 05:47:21;;;;;;;;;;;;;;;21.68;48.79;97323.75;4225502;28;5637;-72
2022/05/12 05:49:23;;;;;;;;;;;;;;;21.80;48.79;97321.75;4227857;28;5604;-71
2022/05/12 05:53:50;;;;;;;;;;;;;;;22.06;48.20;97329.06;4219115;28;5505;-74
2022/05/12 05:55:53;;;;;;;;;;;;;;;22.14;48.32;97327.78;4219738;28;5706;-73
2022/05/12 05:58:00;;;;;;;;;;;;;;;22.22;48.04;97326.53;4219720;28;5620;-74
2022/05/12 06:00:05;;;;;;;;;;;;;;;22.30;47.99;97328.75;4220001;28;5679;-74
2022/05/12 06:02:09;;;;;;;;;;;;;;;22.35;47.50;97334.19;4220187;28;5771;-74
2022/05/12 06:04:12;;;;;;;;;;;;;;;22.39;47.66;97332.59;4220155;28;5755;-74
2022/05/12 06:06:16;;;;;;;;;;;;;;;22.44;47.42;97331.84;4218997;28;5835;-75
2022/05/12 06:08:22;;;;;;;;;;;;;;;22.49;47.08;97338.09;4219804;28;5910;-74
2022/05/12 06:10:32;;;;;;;;;;;;;;;22.53;46.89;97339.19;4219709;28;5808;-74
2022/05/12 06:12:37;;;;;;;;;;;;;;;22.56;47.04;97344.09;4219533;28;5738;-74
2022/05/12 06:14:42;;;;;;;;;;;;;;;22.59;46.88;97332.78;4219694;28;5710;-74
2022/05/12 06:16:45;;;;;;;;;;;;;;;22.62;46.80;97337.66;4219740;28;5717;-75
2022/05/12 06:18:48;;;;;;;;;;;;;;;22.60;46.54;97349.78;4219534;28;5821;-75
2022/05/12 06:20:52;;;;;;;;;;;;;;;22.62;46.79;97353.84;4219733;28;5917;-74
2022/05/12 06:22:55;;;;;;;;;;;;;;;22.65;46.56;97341.72;4219556;28;7692;-75
2022/05/12 06:24:58;;;;;;;;;;;;;;;22.69;46.26;97348.25;4219297;28;5707;-74
2022/05/12 06:27:01;;;;;;;;;;;;;;;22.71;46.07;97350.69;4218921;28;5632;-74
2022/05/12 06:29:06;;;;;;;;;;;;;;;22.73;45.73;97346.66;4219698;28;5644;-73
2022/05/12 06:31:10;;;;;;;;;;;;;;;22.75;46.02;97349.09;4201194;28;5651;-74
2022/05/12 06:33:17;;;;;;;;;;;;;;;22.77;45.91;97349.66;4204632;28;7159;-75
2022/05/12 06:35:23;;;;;;;;;;;;;;;22.79;45.89;97361.00;4202353;28;5718;-74
2022/05/12 06:37:26;;;;;;;;;;;;;;;22.81;45.85;97353.47;4184511;28;5627;-74
2022/05/12 06:39:29;;;;;;;;;;;;;;;22.84;45.22;97353.78;4202251;28;5639;-74
2022/05/12 06:41:33;;;;;;;;;;;;;;;22.87;45.14;97339.78;4201380;28;5731;-74
2022/05/12 06:43:38;;;;;;;;;;;;;;;22.88;45.13;97343.31;4202463;28;5632;-74
2022/05/12 06:45:43;;;;;;;;;;;;;;;22.86;45.35;97338.16;4202360;28;5710;-74
2022/05/12 06:47:52;;;;;;;;;;;;;;;22.86;45.30;97342.72;4202706;28;5799;-74
2022/05/12 06:49:55;;;;;;;;;;;;;;;22.84;45.12;97347.56;4202382;28;5608;-74
2022/05/12 06:51:59;;;;;;;;;;;;;;;22.83;45.16;97348.63;4205329;28;5629;-74
2022/05/12 06:54:02;;;;;;;;;;;;;;;22.81;45.14;97346.19;4215896;28;5789;-74
2022/05/12 06:56:07;;;;;;;;;;;;;;;22.79;44.88;97342.13;4202094;28;5690;-74
2022/05/12 06:58:10;;;;;;;;;;;;;;;22.79;45.15;97348.31;4215246;28;5628;-74
2022/05/12 07:00:16;;;;;;;;;;;;;;;22.75;44.84;97360.66;4218906;28;5644;-74
2022/05/12 07:02:19;;;;;;;;;;;;;;;22.69;44.88;97363.59;4202216;28;5607;-75
2022/05/12 07:04:24;;;;;;;;;;;;;;;22.64;45.13;97365.16;4201606;28;5746;-74
2022/05/12 07:06:28;;;;;;;;;;;;;;;22.62;44.82;97364.59;4202159;28;5619;-74
2022/05/12 07:08:31;;;;;;;;;;;;;;;22.61;45.14;97362.19;4201871;28;5135;-74
2022/05/12 07:10:36;;;;;;;;;;;;;;;22.62;44.96;97370.00;4214044;28;5762;-75
2022/05/12 07:12:41;;;;;;;;;;;;;;;22.64;44.75;97367.84;4218562;28;5719;-74
2022/05/12 07:14:44;;;;;;;;;;;;;;;22.67;44.78;97366.56;4218596;28;5675;-74
2022/05/12 07:16:47;;;;;;;;;;;;;;;22.67;44.84;97367.38;4218531;28;6459;-74
2022/05/12 07:18:52;;;;;;;;;;;;;;;22.69;44.98;97366.28;4201955;28;5730;-75
2022/05/12 07:27:59;;;;;;;;;;;;;;;22.69;44.47;97366.28;4201384;28;5773;-74
2022/05/12 07:30:02;;;;;;;;;;;;;;;22.67;44.59;97367.38;4201973;28;5793;-74
2022/05/12 07:32:06;;;;;;;;;;;;;;;22.68;44.40;97370.88;4201687;28;5635;-73
2022/05/12 07:34:10;;;;;;;;;;;;;;;22.67;44.61;97370.06;4201669;28;5627;-74
2022/05/12 07:36:18;;;;;;;;;;;;;;;22.67;44.31;97369.25;4201602;28;5772;-75
2022/05/12 07:38:21;;;;;;;;;;;;;;;22.68;44.38;97365.47;4201402;28;5709;-74
2022/05/12 07:40:26;;;;;;;;;;;;;;;22.66;44.70;97370.31;4200592;28;5714;-75
2022/05/12 07:42:29;;;;;;;;;;;;;;;22.63;44.68;97368.94;4200609;28;5627;-74
2022/05/12 07:44:34;;;;;;;;;;;;;;;22.61;44.65;97368.38;4183708;28;5760;-74
2022/05/12 07:46:38;;;;;;;;;;;;;;;22.60;44.70;97366.75;4200858;28;5675;-74
2022/05/12 07:48:41;;;;;;;;;;;;;;;22.61;44.68;97376.47;4201376;28;5711;-74
2022/05/12 07:50:45;;;;;;;;;;;;;;;22.60;44.38;97372.13;4201123;28;5719;-74
2022/05/12 07:52:50;;;;;;;;;;;;;;;22.60;44.43;97377.53;4210795;28;5621;-74
2022/05/12 07:54:53;;;;;;;;;;;;;;;22.58;44.60;97371.59;4218108;28;5873;-74
2022/05/12 07:57:00;;;;;;;;;;;;;;;22.58;44.30;97368.09;4217900;28;5618;-74
2022/05/12 07:59:04;;;;;;;;;;;;;;;22.58;44.55;97379.69;4218046;28;6350;-74
2022/05/12 08:01:08;;;;;;;;;;;;;;;22.57;43.97;97372.66;4199838;28;5758;-74
2022/05/12 08:03:13;;;;;;;;;;;;;;;22.57;44.04;97372.66;4199868;28;5735;-74
2022/05/12 08:05:16;;;;;;;;;;;;;;;22.59;44.15;97378.59;4218047;28;5636;-74
2022/05/12 08:07:19;;;;;;;;;;;;;;;22.60;44.09;97380.22;4217838;28;5624;-74
2022/05/12 08:09:26;;;;;;;;;;;;;;;22.60;43.91;97372.13;4199824;28;5706;-74
2022/05/12 08:11:29;;;;;;;;;;;;;;;22.60;44.03;97369.44;4233974;28;5606;-74
2022/05/12 08:13:33;;;;;;;;;;;;;;;22.62;44.01;97374.56;4234627;28;6489;-74
2022/05/12 08:15:36;;;;;;;;;;;;;;;22.63;43.82;97382.41;4234590;28;5605;-74
2022/05/12 08:17:41;;;;;;;;;;;;;;;22.62;43.55;97370.00;4234896;28;5691;-74
2022/05/12 08:19:47;;;;;;;;;;;;;;;22.62;43.62;97371.88;4234039;28;6325;-74
2022/05/12 08:21:54;;;;;;;;;;;;;;;22.63;43.77;97377.00;4234979;28;5684;-74
2022/05/12 08:23:57;;;;;;;;;;;;;;;22.65;43.54;97380.28;4216305;28;7385;-74
2022/05/12 08:26:02;;;;;;;;;;;;;;;22.65;43.89;97383.00;4234498;28;5610;-74
2022/05/12 08:28:06;;;;;;;;;;;;;;;22.66;43.54;97373.00;4234702;28;5621;-74
2022/05/12 08:30:13;;;;;;;;;;;;;;;22.67;43.86;97372.75;4234471;28;5602;-74
2022/05/12 08:32:16;;;;;;;;;;;;;;;22.69;43.30;97374.38;4235049;28;5624;-74
2022/05/12 08:34:20;;;;;;;;;;;;;;;22.69;43.37;97374.38;4234736;28;5618;-74
2022/05/12 08:36:27;;;;;;;;;;;;;;;22.71;43.64;97375.75;4234845;28;5777;-74
2022/05/12 08:38:34;;;;;;;;;;;;;;;22.71;43.55;97374.94;4234579;28;5680;-74
2022/05/12 08:40:48;;;;;;;;;;;;;;;22.72;43.40;97368.47;4216458;28;5626;-75
2022/05/12 08:42:53;;;;;;;;;;;;;;;22.75;43.45;97367.94;4234787;28;5812;-74
2022/05/12 08:45:00;;;;;;;;;;;;;;;22.76;43.30;97358.78;4216679;28;5652;-74
2022/05/12 08:47:06;;;;;;;;;;;;;;;22.76;43.66;97356.91;4234362;28;5618;-74
2022/05/12 08:49:20;;;;;;;;;;;;;;;22.78;43.46;97356.69;4234702;28;5785;-74
2022/05/12 08:51:23;;;;;;;;;;;;;;;22.80;43.28;97355.34;4234296;28;5613;-74
2022/05/12 08:53:30;;;;;;;;;;;;;;;22.80;43.71;97344.56;4202903;28;5706;-74
2022/05/12 08:55:40;;;;;;;;;;;;;;;22.82;43.20;97347.81;4199628;28;5635;-74
2022/05/12 08:57:54;;;;;;;;;;;;;;;22.82;43.50;97345.09;4199460;28;5623;-75
2022/05/12 09:00:06;;;;;;;;;;;;;;;22.83;43.13;97337.84;4200736;28;5705;-74
2022/05/12 09:02:29;;;;;;;;;;;;;;;22.83;43.16;97343.22;4200915;28;5681;-74
2022/05/12 09:04:59;;;;;;;;;;;;;;;22.85;43.46;97344.63;4200348;28;5706;-74
2022/05/12 09:07:17;;;;;;;;;;;;;;;22.86;43.52;97332.75;4200536;28;5685;-74
2022/05/12 09:09:27;;;;;;;;;;;;;;;22.89;43.25;97331.44;4200792;28;5701;-74
2022/05/12 09:11:39;;;;;;;;;;;;;;;22.90;43.00;97341.16;4233342;28;5754;-74
2022/05/12 09:13:48;;;;;;;;;;;;;;;22.89;43.35;97336.84;4234272;28;5732;-74
2022/05/12 09:16:04;;;;;;;;;;;;;;;22.90;43.36;97341.16;4216369;28;5084;-75
2022/05/12 09:18:16;;;;;;;;;;;;;;;22.90;43.14;97339.28;4234326;28;6290;-74
2022/05/12 09:20:20;;;;;;;;;;;;;;;22.91;43.19;97345.47;4234202;28;5600;-74
2022/05/12 09:22:27;;;;;;;;;;;;;;;22.91;43.29;97329.31;4234056;28;5598;-74
2022/05/12 09:24:31;;;;;;;;;;;;;;;22.93;43.10;97332.56;4234189;28;5601;-75
2022/05/12 09:26:39;;;;;;;;;;;;;;;22.96;43.45;97326.63;4235054;28;5681;-74
2022/05/12 09:28:42;;;;;;;;;;;;;;;22.96;43.26;97332.03;4237671;28;5060;-75
2022/05/12 09:30:47;;;;;;;;;;;;;;;22.98;42.91;97329.88;4237333;28;5705;-74
2022/05/12 09:32:58;;;;;;;;;;;;;;;23.00;43.33;97329.66;4237343;28;6396;-75
2022/05/12 09:35:22;;;;;;;;;;;;;;;23.01;43.42;97329.38;4237429;28;5191;-75
2022/05/12 09:37:28;;;;;;;;;;;;;;;23.06;43.06;97331.28;4234548;28;5729;-74
2022/05/12 09:39:36;;;;;;;;;;;;;;;23.12;43.00;97335.66;4237163;28;5044;-74
2022/05/12 09:41:43;;;;;;;;;;;;;;;23.17;43.37;97343.75;4236784;28;5598;-74
2022/05/12 09:43:46;;;;;;;;;;;;;;;23.23;43.39;97338.16;4219039;28;5624;-74
2022/05/12 09:46:14;;;;;;;;;;;;;;;23.31;43.04;97336.03;4237143;28;5618;-74
2022/05/12 09:48:26;;;;;;;;;;;;;;;23.36;43.35;97341.47;4236960;28;5629;-75
2022/05/12 09:50:29;;;;;;;;;;;;;;;23.37;42.90;97332.28;4236771;28;5759;-75
2022/05/12 09:52:36;;;;;;;;;;;;;;;23.43;43.09;97331.22;4220517;28;5777;-74
2022/05/12 09:54:42;;;;;;;;;;;;;;;23.50;43.01;97332.63;4203124;28;5898;-75
2022/05/12 09:56:59;;;;;;;;;;;;;;;23.61;42.67;97324.59;4203047;28;5789;-75
2022/05/12 09:59:17;;;;;;;;;;;;;;;23.68;42.97;97328.69;4203294;28;5809;-74
2022/05/12 10:01:23;;;;;;;;;;;;;;;23.75;42.68;97323.84;4202819;28;5766;-74
2022/05/12 10:08:21;;;;;;;;;;;;;;;23.92;42.36;97318.25;4202949;28;5698;-75
2022/05/12 10:10:30;;;;;;;;;;;;;;;23.96;42.62;97313.94;4217877;28;6503;-74
2022/05/12 10:12:38;;;;;;;;;;;;;;;24.00;42.69;97314.19;4236418;28;5594;-75
2022/05/12 10:14:47;;;;;;;;;;;;;;;23.99;42.57;97307.19;4236754;28;5660;-75
2022/05/12 10:16:52;;;;;;;;;;;;;;;23.99;42.31;97296.38;4218544;28;5619;-75
2022/05/12 10:19:03;;;;;;;;;;;;;;;23.98;41.98;97300.97;4236887;28;5247;-75
2022/05/12 10:21:13;;;;;;;;;;;;;;;23.96;42.29;97296.91;4236668;28;5601;-75
2022/05/12 10:23:24;;;;;;;;;;;;;;;23.99;41.96;97299.88;4236406;28;5696;-75
2022/05/12 10:26:00;;;;;;;;;;;;;;;23.99;42.16;97296.38;4236922;28;5094;-74
2022/05/12 10:28:12;;;;;;;;;;;;;;;23.97;42.14;97287.72;4236333;28;5812;-75
2022/05/12 10:30:27;;;;;;;;;;;;;;;23.94;42.08;97283.69;4236848;28;5681;-75
2022/05/12 10:32:43;;;;;;;;;;;;;;;23.98;41.61;97286.66;4236462;28;5676;-75
2022/05/12 10:35:00;;;;;;;;;;;;;;;24.00;41.30;97287.19;4236715;28;5418;-75
2022/05/12 10:37:09;;;;;;;;;;;;;;;24.00;41.34;97281.78;4236306;28;5706;-75
2022/05/12 10:39:20;;;;;;;;;;;;;;;24.02;41.59;97283.16;4236389;28;6983;-75
2022/05/12 10:41:33;;;;;;;;;;;;;;;24.03;41.33;97278.56;4236292;28;7720;-75
2022/05/12 10:44:03;;;;;;;;;;;;;;;24.08;41.48;97281.28;4236317;28;5820;-75
2022/05/12 10:46:13;;;;;;;;;;;;;;;24.11;41.06;97273.44;4236340;28;5677;-74
2022/05/12 10:48:29;;;;;;;;;;;;;;;24.17;41.25;97276.16;4236317;28;5700;-75
2022/05/12 10:50:40;;;;;;;;;;;;;;;24.21;40.82;97264.53;4209663;28;5746;-75
2022/05/12 10:52:55;;;;;;;;;;;;;;;24.23;40.49;97262.38;4192012;28;5716;-74
2022/05/12 10:55:11;;;;;;;;;;;;;;;24.28;40.63;97258.88;4186098;28;5732;-75
2022/05/12 10:57:31;;;;;;;;;;;;;;;24.33;40.71;97264.31;4185464;28;5891;-75
2022/05/12 10:59:50;;;;;;;;;;;;;;;24.33;40.09;97254.31;4185849;28;5723;-75
2022/05/12 11:01:58;;;;;;;;;;;;;;;24.36;40.22;97253.78;4185667;28;5719;-74
2022/05/12 11:04:08;;;;;;;;;;;;;;;24.44;40.33;97254.31;4185349;28;5619;-75
2022/05/12 11:06:16;;;;;;;;;;;;;;;24.49;39.96;97263.25;4185687;28;5715;-75
2022/05/12 11:08:22;;;;;;;;;;;;;;;24.55;39.80;97256.75;4185533;28;5791;-75
2022/05/12 11:10:30;;;;;;;;;;;;;;;24.60;39.62;97256.75;4191351;28;5734;-75
2022/05/12 11:12:40;;;;;;;;;;;;;;;24.65;39.62;97253.22;4201891;28;5690;-75
2022/05/12 11:14:52;;;;;;;;;;;;;;;24.68;39.73;97244.56;4202045;28;5698;-75
2022/05/12 11:17:06;;;;;;;;;;;;;;;24.73;39.58;97246.47;4200774;28;5650;-75
2022/05/12 11:19:16;;;;;;;;;;;;;;;24.77;39.25;97242.94;4202000;28;5804;-75
2022/05/12 11:21:25;;;;;;;;;;;;;;;24.83;39.42;97244.56;4201971;28;5681;-75
2022/05/12 11:23:41;;;;;;;;;;;;;;;24.89;38.80;97243.44;4201770;28;5701;-75
2022/05/12 11:25:57;;;;;;;;;;;;;;;24.94;38.67;97235.34;4201967;28;5701;-76
2022/05/12 11:30:37;;;;;;;;;;;;;;;25.02;38.84;97238.56;4196704;28;5715;-75
2022/05/12 11:32:50;;;;;;;;;;;;;;;25.08;38.57;97242.91;4184881;28;5743;-74
2022/05/12 11:34:56;;;;;;;;;;;;;;;25.11;38.29;97240.44;4185115;28;5729;-75
2022/05/12 11:37:27;;;;;;;;;;;;;;;25.16;38.33;97245.03;4184206;28;5759;-75
2022/05/12 11:39:55;;;;;;;;;;;;;;;25.16;38.55;97235.03;4182757;28;5201;-75
2022/05/12 11:42:14;;;;;;;;;;;;;;;25.16;38.34;97234.22;4182065;28;5724;-74
2022/05/12 11:44:29;;;;;;;;;;;;;;;25.16;38.06;97226.91;4185091;28;5770;-74
2022/05/12 11:46:44;;;;;;;;;;;;;;;25.14;38.23;97220.13;4184619;28;5830;-75
2022/05/12 11:48:56;;;;;;;;;;;;;;;25.12;38.44;97225.84;4180214;28;5883;-75
2022/05/12 11:51:18;;;;;;;;;;;;;;;25.11;38.10;97218.00;4207903;28;5640;-75
2022/05/12 11:53:25;;;;;;;;;;;;;;;25.10;38.33;97214.47;4213356;28;6528;-75
2022/05/12 11:55:31;;;;;;;;;;;;;;;25.09;38.24;97212.06;4198243;28;5671;-75
2022/05/12 11:57:38;;;;;;;;;;;;;;;25.09;37.79;97212.06;4216972;28;5645;-75
2022/05/12 11:59:50;;;;;;;;;;;;;;;25.07;37.94;97208.81;4202510;28;7733;-74
2022/05/12 12:01:56;;;;;;;;;;;;;;;25.09;37.93;97209.34;4201361;28;5639;-74
2022/05/12 12:04:01;;;;;;;;;;;;;;;25.11;37.79;97210.69;4201358;28;5623;-74
2022/05/12 12:06:05;;;;;;;;;;;;;;;25.13;37.50;97218.53;4201141;28;7838;-75
2022/05/12 12:08:14;;;;;;;;;;;;;;;25.14;37.75;97214.72;4212558;28;6799;-75
2022/05/12 12:10:41;;;;;;;;;;;;;;;25.12;37.42;97216.91;4187944;28;5670;-75
2022/05/12 12:13:01;;;;;;;;;;;;;;;25.09;37.68;97214.75;4208352;28;5629;-74
2022/05/12 12:15:05;;;;;;;;;;;;;;;25.05;37.53;97213.72;4205856;28;5713;-75
2022/05/12 12:17:11;;;;;;;;;;;;;;;25.03;37.63;97213.16;4211160;28;5613;-74
2022/05/12 12:19:41;;;;;;;;;;;;;;;25.03;37.38;97208.56;4207502;28;5962;-75
2022/05/12 12:21:53;;;;;;;;;;;;;;;25.00;37.60;97198.25;4210382;28;5610;-75
2022/05/12 12:24:05;;;;;;;;;;;;;;;24.98;37.62;97200.44;4217637;28;5710;-74
2022/05/12 12:26:25;;;;;;;;;;;;;;;24.93;37.43;97198.56;4217785;28;5729;-74
2022/05/12 12:28:35;;;;;;;;;;;;;;;24.88;37.37;97189.63;4217828;28;5794;-75
2022/05/12 12:31:04;;;;;;;;;;;;;;;24.88;37.60;97189.63;4217744;28;5691;-75
2022/05/12 12:33:18;;;;;;;;;;;;;;;24.89;37.39;97189.34;4217742;28;5687;-75
2022/05/12 12:35:28;;;;;;;;;;;;;;;24.92;37.49;97188.03;4206189;28;5738;-75
2022/05/12 12:37:43;;;;;;;;;;;;;;;24.96;36.99;97191.78;4202450;28;5751;-75
2022/05/12 12:39:48;;;;;;;;;;;;;;;24.97;37.17;97188.81;4217883;28;5797;-75
2022/05/12 12:42:06;;;;;;;;;;;;;;;25.00;37.01;97194.75;4213404;28;5637;-75
2022/05/12 12:44:17;;;;;;;;;;;;;;;24.99;36.98;97188.53;4215794;28;5627;-75
2022/05/12 12:46:26;;;;;;;;;;;;;;;25.00;37.39;97181.22;4196166;28;5627;-75
2022/05/12 12:48:34;;;;;;;;;;;;;;;25.01;37.29;97182.84;4196546;28;5630;-75
2022/05/12 12:50:48;;;;;;;;;;;;;;;25.01;37.09;97172.84;4201115;28;5747;-75
2022/05/12 12:52:51;;;;;;;;;;;;;;;25.02;37.02;97168.25;4205354;28;5684;-75
2022/05/12 12:57:23;;;;;;;;;;;;;;;25.02;37.34;97169.06;4208452;28;7731;-75
2022/05/12 12:59:26;;;;;;;;;;;;;;;25.03;37.29;97176.13;4204022;28;5659;-75
2022/05/12 13:01:46;;;;;;;;;;;;;;;25.04;37.30;97174.22;4194230;28;5715;-75
2022/05/12 13:03:52;;;;;;;;;;;;;;;25.05;37.20;97175.84;4219881;28;6297;-75
2022/05/12 13:06:08;;;;;;;;;;;;;;;25.05;36.85;97167.72;4200993;28;5646;-75
2022/05/12 13:08:24;;;;;;;;;;;;;;;25.05;36.99;97170.44;4217576;28;5089;-75
2022/05/12 13:10:28;;;;;;;;;;;;;;;25.07;36.92;97160.94;4206953;28;5631;-74
2022/05/12 13:12:34;;;;;;;;;;;;;;;25.09;36.76;97163.38;4203346;28;5640;-75
2022/05/12 13:14:38;;;;;;;;;;;;;;;25.09;36.74;97158.75;4204088;28;5639;-75
2022/05/12 13:16:48;;;;;;;;;;;;;;;25.09;36.90;97163.38;4221001;28;5629;-75
2022/05/12 13:18:58;;;;;;;;;;;;;;;25.09;36.55;97160.66;4213270;28;5612;-75
2022/05/12 13:21:04;;;;;;;;;;;;;;;25.11;36.69;97153.06;4217522;28;5315;-75
2022/05/12 13:23:12;;;;;;;;;;;;;;;25.13;36.83;97148.19;4202456;28;5642;-75
2022/05/12 13:25:21;;;;;;;;;;;;;;;25.13;36.92;97140.06;4220661;28;5824;-75
2022/05/12 13:27:35;;;;;;;;;;;;;;;25.13;36.74;97140.88;4220546;28;5691;-75
2022/05/12 13:29:41;;;;;;;;;;;;;;;25.14;36.60;97138.97;4220619;28;5666;-75
2022/05/12 13:31:55;;;;;;;;;;;;;;;25.13;36.52;97138.19;4220826;28;5619;-75
2022/05/12 13:34:05;;;;;;;;;;;;;;;25.12;36.59;97133.84;4220769;28;5882;-75
2022/05/12 13:36:20;;;;;;;;;;;;;;;25.13;36.50;97132.75;4220464;28;5620;-75
2022/05/12 13:38:26;;;;;;;;;;;;;;;25.17;36.59;97138.44;4220256;28;5609;-75
2022/05/12 13:40:57;;;;;;;;;;;;;;;25.19;36.48;97131.66;4202118;28;5818;-75
2022/05/12 13:43:00;;;;;;;;;;;;;;;25.21;36.62;97131.38;4147947;28;5797;-75
2022/05/12 13:45:09;;;;;;;;;;;;;;;25.23;36.27;97129.22;4167428;28;5685;-75
2022/05/12 13:47:21;;;;;;;;;;;;;;;25.25;36.36;97125.13;4165960;28;5693;-75
2022/05/12 13:49:29;;;;;;;;;;;;;;;25.28;36.35;97123.78;4168618;28;5684;-75
2022/05/12 13:51:56;;;;;;;;;;;;;;;25.31;35.91;97123.22;4168221;28;5843;-76
2022/05/12 13:54:21;;;;;;;;;;;;;;;25.33;36.20;97115.63;4168295;28;5852;-75
2022/05/12 13:56:27;;;;;;;;;;;;;;;25.36;36.22;97120.47;4168203;28;5851;-76
2022/05/12 13:58:30;;;;;;;;;;;;;;;25.38;35.84;97114.81;4168165;28;5700;-75
2022/05/12 14:00:40;;;;;;;;;;;;;;;25.44;35.81;97117.19;4168050;28;5709;-75
2022/05/12 14:02:45;;;;;;;;;;;;;;;25.52;36.23;97102.25;4168377;28;5692;-75
2022/05/12 14:04:48;;;;;;;;;;;;;;;25.57;36.15;97106.81;4177144;28;5744;-75
2022/05/12 14:06:54;;;;;;;;;;;;;;;25.64;35.91;97099.19;4166357;28;5756;-75
2022/05/12 14:09:04;;;;;;;;;;;;;;;25.71;35.73;97099.69;4167594;28;6370;-75
2022/05/12 14:11:14;;;;;;;;;;;;;;;25.75;35.66;97093.44;4166841;28;5676;-74
2022/05/12 14:20:27;;;;;;;;;;;;;;;25.85;35.91;97094.47;4202732;28;5690;-75
2022/05/12 14:22:31;;;;;;;;;;;;;;;25.82;35.43;97090.38;4201218;28;5749;-77
2022/05/12 14:24:37;;;;;;;;;;;;;;;25.81;35.84;97089.59;4197474;28;5731;-76
2022/05/12 14:26:40;;;;;;;;;;;;;;;25.83;35.62;97083.91;4201069;28;5790;-76
2022/05/12 14:28:43;;;;;;;;;;;;;;;25.82;35.97;97080.41;4201511;28;6407;-76
2022/05/12 14:30:47;;;;;;;;;;;;;;;25.82;35.61;97080.41;4188598;28;5719;-76
2022/05/12 14:32:53;;;;;;;;;;;;;;;25.81;35.85;97084.16;4186064;28;5762;-75
2022/05/12 14:34:58;;;;;;;;;;;;;;;25.82;35.78;97083.09;4194586;28;5717;-75
2022/05/12 14:37:01;;;;;;;;;;;;;;;25.83;35.61;97092.03;4202375;28;5798;-75
2022/05/12 14:39:05;;;;;;;;;;;;;;;25.83;35.63;97089.31;4191977;28;5797;-76
2022/05/12 14:41:08;;;;;;;;;;;;;;;25.81;35.96;97083.38;4202838;28;5686;-74
2022/05/12 14:43:11;;;;;;;;;;;;;;;25.82;35.85;97095.81;4200760;28;5705;-75
2022/05/12 14:45:15;;;;;;;;;;;;;;;25.80;35.85;97103.41;4188905;28;7838;-75
2022/05/12 14:47:22;;;;;;;;;;;;;;;25.78;35.86;97089.34;4204009;28;6515;-75
2022/05/12 14:49:29;;;;;;;;;;;;;;;25.79;36.00;97096.38;4205205;28;5680;-75
2022/05/12 14:51:33;;;;;;;;;;;;;;;25.80;35.75;97092.56;4196160;28;5763;-75
2022/05/12 14:53:39;;;;;;;;;;;;;;;25.81;35.84;97094.19;4200143;28;7042;-75
2022/05/12 14:55:42;;;;;;;;;;;;;;;25.84;35.66;97093.66;4209146;28;5767;-75
2022/05/12 14:57:46;;;;;;;;;;;;;;;25.87;35.72;97092.28;4204499;28;5825;-76
2022/05/12 14:59:49;;;;;;;;;;;;;;;25.87;35.63;97079.53;4200727;28;5777;-76
2022/05/12 15:01:53;;;;;;;;;;;;;;;25.87;35.97;97084.94;4189325;28;5800;-76
2022/05/12 15:03:59;;;;;;;;;;;;;;;25.89;36.07;97084.66;4195012;28;7154;-77
2022/05/12 15:06:02;;;;;;;;;;;;;;;25.91;35.66;97079.75;4196292;28;5900;-77
2022/05/12 15:08:06;;;;;;;;;;;;;;;25.93;35.88;97089.22;4201693;28;5843;-77
2022/05/12 15:10:12;;;;;;;;;;;;;;;25.96;36.10;97085.16;4205394;28;6955;-78
2022/05/12 15:12:15;;;;;;;;;;;;;;;25.97;36.06;97087.56;4206071;28;5771;-79
2022/05/12 15:14:19;;;;;;;;;;;;;;;25.99;35.97;97085.38;4204182;28;5801;-79
2022/05/12 15:16:22;;;;;;;;;;;;;;;26.01;36.02;97088.59;4199984;28;5773;-78
2022/05/12 15:18:25;;;;;;;;;;;;;;;26.02;35.80;97084.00;4209502;28;5767;-78
2022/05/12 15:20:29;;;;;;;;;;;;;;;25.99;35.96;97079.97;4205983;28;5797;-79
2022/05/12 15:22:32;;;;;;;;;;;;;;;25.99;35.93;97079.16;4203473;28;5870;-79
2022/05/12 15:24:35;;;;;;;;;;;;;;;25.99;36.33;97084.56;4199101;28;5769;-78
2022/05/12 15:26:42;;;;;;;;;;;;;;;25.98;36.05;97086.47;4199764;28;5845;-78
2022/05/12 15:28:45;;;;;;;;;;;;;;;25.97;36.37;97079.44;4196111;28;5792;-78
2022/05/12 15:30:48;;;;;;;;;;;;;;;25.97;36.26;97087.56;4199246;28;5878;-79
2022/05/12 15:32:53;;;;;;;;;;;;;;;25.97;36.09;97090.28;4200439;28;5844;-79
2022/05/12 15:34:56;;;;;;;;;;;;;;;25.96;36.03;97091.38;4200414;28;5887;-80
2022/05/12 15:37:01;;;;;;;;;;;;;;;25.98;36.32;97096.50;4207272;28;5747;-78
2022/05/12 15:39:06;;;;;;;;;;;;;;;25.99;36.12;97096.22;4206021;28;5729;-77
2022/05/12 15:41:09;;;;;;;;;;;;;;;26.00;36.12;97097.03;4199334;28;6131;-76
2022/05/12 15:43:13;;;;;;;;;;;;;;;25.98;36.03;97094.59;4205675;28;5905;-77
2022/05/12 15:45:16;;;;;;;;;;;;;;;25.97;36.24;97095.69;4204938;28;5882;-78
2022/05/12 15:47:29;;;;;;;;;;;;;;;25.98;36.19;97094.59;4199233;28;5789;-77
2022/05/12 15:49:34;;;;;;;;;;;;;;;25.97;36.15;97094.91;4203205;28;5840;-81
2022/05/12 15:51:37;;;;;;;;;;;;;;;25.96;36.41;97095.97;4199677;28;5948;-78
2022/05/12 15:53:41;;;;;;;;;;;;;;;25.96;36.48;97096.78;4202738;28;5800;-78
2022/05/12 15:55:45;;;;;;;;;;;;;;;25.97;36.11;97095.69;4181133;28;5830;-76
2022/05/12 15:57:48;;;;;;;;;;;;;;;25.96;36.40;97090.56;4196107;28;5911;-75
2022/05/12 15:59:51;;;;;;;;;;;;;;;25.95;36.41;97097.88;4204660;28;5805;-75
2022/05/12 16:01:55;;;;;;;;;;;;;;;25.95;36.40;97089.75;4200413;28;5796;-77
2022/05/12 16:03:58;;;;;;;;;;;;;;;25.94;36.45;97087.34;4198238;28;5797;-77
2022/05/12 16:06:02;;;;;;;;;;;;;;;25.93;36.45;97091.91;4205952;28;5845;-79
2022/05/12 16:08:05;;;;;;;;;;;;;;;25.94;36.49;97095.47;4203257;28;6502;-78
2022/05/12 16:10:10;;;;;;;;;;;;;;;25.93;36.21;97097.34;4198231;28;5857;-79
2022/05/12 16:12:26;;;;;;;;;;;;;;;25.94;36.49;97098.19;4207589;28;5660;-77
2022/05/12 16:14:36;;;;;;;;;;;;;;;25.91;36.15;97094.13;4201388;28;5909;-80
2022/05/12 16:16:39;;;;;;;;;;;;;;;25.90;36.26;97091.69;4199783;28;5822;-79
2022/05/12 16:18:43;;;;;;;;;;;;;;;25.92;36.39;97095.72;4198950;28;5869;-76
2022/05/12 16:20:47;;;;;;;;;;;;;;;25.89;36.44;97088.19;4200058;28;5835;-77
2022/05/12 16:22:53;;;;;;;;;;;;;;;25.89;36.53;97092.78;4200094;28;5788;-77
2022/05/12 16:24:56;;;;;;;;;;;;;;;25.86;36.20;97091.47;4199433;28;7003;-78
2022/05/12 16:27:04;;;;;;;;;;;;;;;25.83;36.45;97098.25;4199198;28;5891;-76
2022/05/12 16:29:11;;;;;;;;;;;;;;;25.82;36.83;97098.50;4200475;28;5792;-80
2022/05/12 16:31:16;;;;;;;;;;;;;;;25.79;36.64;97096.38;4199647;28;5815;-77